sensor_id;sensor_type;location;lat;lon;timestamp;pressure;altitude;pressure_sealevel;temperature;humidity
69245;BME280;56357;52.304;4.870;2023-12-20T00:02:01;101759.50;;;17.63;59.65
69245;BME280;56357;52.304;4.870;2023-12-20T00:04:28;101762.31;;;17.63;60.64
69245;BME280;56357;52.304;4.870;2023-12-20T00:06:55;101758.13;;;17.82;60.30
69245;BME280;56357;52.304;4.870;2023-12-20T00:09:21;101764.25;;;17.63;59.73
69245;BME280;56357;52.304;4.870;2023-12-20T00:11:48;101757.28;;;17.65;59.31
69245;BME280;56357;52.304;4.870;2023-12-20T00:14:14;101767.22;;;17.56;59.67
69245;BME280;56357;52.304;4.870;2023-12-20T00:16:40;101755.00;;;17.62;59.21
69245;BME280;56357;52.304;4.870;2023-12-20T00:19:07;101759.03;;;17.71;59.35
69245;BME280;56357;52.304;4.870;2023-12-20T00:21:33;101755.22;;;17.44;59.44
69245;BME280;56357;52.304;4.870;2023-12-20T00:24:00;101751.91;;;17.64;60.32
69245;BME280;56357;52.304;4.870;2023-12-20T00:26:26;101755.78;;;17.58;59.48
69245;BME280;56357;52.304;4.870;2023-12-20T00:28:53;101751.78;;;17.54;59.45
69245;BME280;56357;52.304;4.870;2023-12-20T00:31:20;101749.13;;;17.64;59.54
69245;BME280;56357;52.304;4.870;2023-12-20T00:33:47;101753.72;;;17.53;59.57
69245;BME280;56357;52.304;4.870;2023-12-20T00:36:13;101766.53;;;17.49;58.99
69245;BME280;56357;52.304;4.870;2023-12-20T00:38:39;101759.25;;;17.48;59.58
69245;BME280;56357;52.304;4.870;2023-12-20T00:41:06;101756.31;;;17.43;59.50
69245;BME280;56357;52.304;4.870;2023-12-20T00:43:32;101757.59;;;17.35;59.80
69245;BME280;56357;52.304;4.870;2023-12-20T00:45:59;101756.75;;;17.35;59.15
69245;BME280;56357;52.304;4.870;2023-12-20T00:48:26;101738.53;;;17.49;59.74
69245;BME280;56357;52.304;4.870;2023-12-20T00:50:53;101749.63;;;17.44;58.77
69245;BME280;56357;52.304;4.870;2023-12-20T00:53:20;101744.28;;;17.26;60.20
69245;BME280;56357;52.304;4.870;2023-12-20T00:55:46;101748.50;;;17.45;59.32
69245;BME280;56357;52.304;4.870;2023-12-20T00:58:13;101760.94;;;17.49;60.59
69245;BME280;56357;52.304;4.870;2023-12-20T01:00:40;101749.03;;;17.42;58.94
69245;BME280;56357;52.304;4.870;2023-12-20T01:03:08;101759.88;;;17.22;58.89
69245;BME280;56357;52.304;4.870;2023-12-20T01:05:34;101757.00;;;17.33;59.84
69245;BME280;56357;52.304;4.870;2023-12-20T01:08:01;101747.84;;;17.38;59.70
69245;BME280;56357;52.304;4.870;2023-12-20T01:10:28;101757.00;;;17.33;59.46
69245;BME280;56357;52.304;4.870;2023-12-20T01:12:54;101757.66;;;17.24;59.40
69245;BME280;56357;52.304;4.870;2023-12-20T01:15:21;101754.63;;;17.25;59.88
69245;BME280;56357;52.304;4.870;2023-12-20T01:17:48;101754.72;;;17.47;59.47
69245;BME280;56357;52.304;4.870;2023-12-20T01:20:14;101761.59;;;17.39;59.26
69245;BME280;56357;52.304;4.870;2023-12-20T01:22:42;101750.88;;;17.20;59.33
69245;BME280;56357;52.304;4.870;2023-12-20T01:25:11;101748.19;;;17.25;59.67
69245;BME280;56357;52.304;4.870;2023-12-20T01:27:37;101748.25;;;17.13;59.54
69245;BME280;56357;52.304;4.870;2023-12-20T01:30:04;101742.81;;;17.23;59.85
69245;BME280;56357;52.304;4.870;2023-12-20T01:32:31;101746.41;;;17.19;58.80
69245;BME280;56357;52.304;4.870;2023-12-20T01:34:57;101739.28;;;17.28;60.00
69245;BME280;56357;52.304;4.870;2023-12-20T01:37:24;101745.81;;;17.33;58.58
69245;BME280;56357;52.304;4.870;2023-12-20T01:39:51;101743.28;;;17.49;59.07
69245;BME280;56357;52.304;4.870;2023-12-20T01:42:18;101742.47;;;17.20;59.74
69245;BME280;56357;52.304;4.870;2023-12-20T01:44:44;101747.16;;;17.14;59.79
69245;BME280;56357;52.304;4.870;2023-12-20T01:47:13;101740.28;;;17.22;59.61
69245;BME280;56357;52.304;4.870;2023-12-20T01:49:39;101749.00;;;17.09;59.70
69245;BME280;56357;52.304;4.870;2023-12-20T01:52:06;101752.28;;;17.06;60.19
69245;BME280;56357;52.304;4.870;2023-12-20T01:54:34;101746.81;;;17.11;59.45
69245;BME280;56357;52.304;4.870;2023-12-20T01:57:02;101742.22;;;17.05;59.06
69245;BME280;56357;52.304;4.870;2023-12-20T01:59:29;101743.47;;;16.97;59.63
69245;BME280;56357;52.304;4.870;2023-12-20T02:01:55;101732.03;;;16.99;60.13
69245;BME280;56357;52.304;4.870;2023-12-20T02:04:22;101730.34;;;16.98;60.15
69245;BME280;56357;52.304;4.870;2023-12-20T02:06:52;101737.03;;;16.97;58.66
69245;BME280;56357;52.304;4.870;2023-12-20T02:09:19;101730.75;;;17.06;58.60
69245;BME280;56357;52.304;4.870;2023-12-20T02:11:45;101733.19;;;16.86;59.01
69245;BME280;56357;52.304;4.870;2023-12-20T02:14:12;101731.22;;;16.87;59.30
69245;BME280;56357;52.304;4.870;2023-12-20T02:16:38;101728.63;;;16.97;60.31
69245;BME280;56357;52.304;4.870;2023-12-20T02:19:10;101736.03;;;17.03;58.88
69245;BME280;56357;52.304;4.870;2023-12-20T02:21:39;101733.59;;;16.78;59.55
69245;BME280;56357;52.304;4.870;2023-12-20T02:24:05;101736.75;;;16.82;59.22
69245;BME280;56357;52.304;4.870;2023-12-20T02:26:33;101727.03;;;17.01;58.91
69245;BME280;56357;52.304;4.870;2023-12-20T02:29:00;101729.91;;;17.06;59.41
69245;BME280;56357;52.304;4.870;2023-12-20T02:31:27;101725.91;;;16.85;58.29
69245;BME280;56357;52.304;4.870;2023-12-20T02:33:53;101718.22;;;16.92;59.00
69245;BME280;56357;52.304;4.870;2023-12-20T02:36:20;101725.63;;;16.87;59.97
69245;BME280;56357;52.304;4.870;2023-12-20T02:38:46;101726.66;;;16.81;60.18
69245;BME280;56357;52.304;4.870;2023-12-20T02:41:13;101720.16;;;16.92;59.09
69245;BME280;56357;52.304;4.870;2023-12-20T02:43:41;101721.44;;;17.01;59.16
69245;BME280;56357;52.304;4.870;2023-12-20T02:46:09;101725.63;;;16.87;59.08
69245;BME280;56357;52.304;4.870;2023-12-20T02:48:35;101713.38;;;16.88;59.52
69245;BME280;56357;52.304;4.870;2023-12-20T02:51:02;101709.22;;;16.90;59.09
69245;BME280;56357;52.304;4.870;2023-12-20T02:53:28;101700.97;;;17.00;59.19
69245;BME280;56357;52.304;4.870;2023-12-20T02:55:55;101697.78;;;16.92;59.21
69245;BME280;56357;52.304;4.870;2023-12-20T02:58:21;101702.03;;;16.94;59.02
69245;BME280;56357;52.304;4.870;2023-12-20T03:00:50;101699.91;;;17.18;58.28
69245;BME280;56357;52.304;4.870;2023-12-20T03:03:17;101698.69;;;17.14;58.88
69245;BME280;56357;52.304;4.870;2023-12-20T03:05:45;101687.50;;;17.14;58.12
69245;BME280;56357;52.304;4.870;2023-12-20T03:08:12;101684.38;;;17.27;59.12
69245;BME280;56357;52.304;4.870;2023-12-20T03:10:38;101693.03;;;17.25;58.88
69245;BME280;56357;52.304;4.870;2023-12-20T03:13:05;101692.94;;;17.20;58.78
69245;BME280;56357;52.304;4.870;2023-12-20T03:15:31;101686.50;;;17.20;59.06
69245;BME280;56357;52.304;4.870;2023-12-20T03:17:58;101688.84;;;17.45;58.03
69245;BME280;56357;52.304;4.870;2023-12-20T03:20:25;101683.84;;;17.47;58.50
69245;BME280;56357;52.304;4.870;2023-12-20T03:22:52;101678.59;;;17.33;58.62
69245;BME280;56357;52.304;4.870;2023-12-20T03:25:18;101681.25;;;17.40;59.07
69245;BME280;56357;52.304;4.870;2023-12-20T03:27:45;101684.47;;;17.49;59.35
69245;BME280;56357;52.304;4.870;2023-12-20T03:30:11;101692.13;;;17.53;57.89
69245;BME280;56357;52.304;4.870;2023-12-20T03:32:38;101694.38;;;17.56;58.83
69245;BME280;56357;52.304;4.870;2023-12-20T03:35:05;101692.13;;;17.53;57.90
69245;BME280;56357;52.304;4.870;2023-12-20T03:37:32;101695.25;;;17.57;58.77
69245;BME280;56357;52.304;4.870;2023-12-20T03:39:58;101710.00;;;17.69;58.01
69245;BME280;56357;52.304;4.870;2023-12-20T03:42:25;101702.06;;;17.82;58.27
69245;BME280;56357;52.304;4.870;2023-12-20T03:44:53;101696.59;;;17.54;58.51
69245;BME280;56357;52.304;4.870;2023-12-20T03:47:19;101685.97;;;17.73;58.30
69245;BME280;56357;52.304;4.870;2023-12-20T03:49:45;101699.13;;;17.72;59.12
69245;BME280;56357;52.304;4.870;2023-12-20T03:52:12;101695.63;;;17.82;58.40
69245;BME280;56357;52.304;4.870;2023-12-20T03:54:38;101697.44;;;17.93;57.75
69245;BME280;56357;52.304;4.870;2023-12-20T03:57:07;101688.50;;;17.74;58.61
69245;BME280;56357;52.304;4.870;2023-12-20T03:59:35;101684.41;;;17.82;57.36
69245;BME280;56357;52.304;4.870;2023-12-20T04:02:02;101688.34;;;17.64;58.70
69245;BME280;56357;52.304;4.870;2023-12-20T04:04:29;101691.91;;;17.76;58.40
69245;BME280;56357;52.304;4.870;2023-12-20T04:06:56;101678.16;;;17.75;58.54
69245;BME280;56357;52.304;4.870;2023-12-20T04:09:22;101689.69;;;17.78;58.06
69245;BME280;56357;52.304;4.870;2023-12-20T04:11:49;101681.88;;;17.80;57.04
69245;BME280;56357;52.304;4.870;2023-12-20T04:14:15;101677.09;;;17.81;59.05
69245;BME280;56357;52.304;4.870;2023-12-20T04:16:41;101675.63;;;17.95;58.68
69245;BME280;56357;52.304;4.870;2023-12-20T04:19:08;101680.25;;;17.84;57.85
69245;BME280;56357;52.304;4.870;2023-12-20T04:21:34;101676.19;;;17.97;58.11
69245;BME280;56357;52.304;4.870;2023-12-20T04:24:01;101670.13;;;17.83;58.54
69245;BME280;56357;52.304;4.870;2023-12-20T04:26:27;101678.69;;;17.93;58.45
69245;BME280;56357;52.304;4.870;2023-12-20T04:28:54;101677.31;;;17.96;57.38
69245;BME280;56357;52.304;4.870;2023-12-20T04:31:21;101681.88;;;17.80;57.43
69245;BME280;56357;52.304;4.870;2023-12-20T04:33:48;101685.53;;;18.02;58.19
69245;BME280;56357;52.304;4.870;2023-12-20T04:36:14;101671.38;;;17.92;57.82
69245;BME280;56357;52.304;4.870;2023-12-20T04:38:41;101675.22;;;18.08;58.87
69245;BME280;56357;52.304;4.870;2023-12-20T04:41:08;101676.78;;;17.99;57.89
69245;BME280;56357;52.304;4.870;2023-12-20T04:43:34;101661.47;;;17.85;58.11
69245;BME280;56357;52.304;4.870;2023-12-20T04:46:01;101651.38;;;18.05;58.48
69245;BME280;56357;52.304;4.870;2023-12-20T04:48:29;101647.22;;;17.86;58.70
69245;BME280;56357;52.304;4.870;2023-12-20T04:50:55;101645.78;;;18.05;58.52
69245;BME280;56357;52.304;4.870;2023-12-20T04:53:22;101643.09;;;17.94;58.56
69245;BME280;56357;52.304;4.870;2023-12-20T04:55:48;101634.63;;;18.10;57.24
69245;BME280;56357;52.304;4.870;2023-12-20T04:58:15;101639.91;;;18.07;57.57
69245;BME280;56357;52.304;4.870;2023-12-20T05:00:41;101643.09;;;17.94;57.76
69245;BME280;56357;52.304;4.870;2023-12-20T05:03:08;101651.84;;;17.97;57.73
69245;BME280;56357;52.304;4.870;2023-12-20T05:05:34;101652.09;;;17.96;57.99
69245;BME280;56357;52.304;4.870;2023-12-20T05:08:02;101659.22;;;18.03;58.46
69245;BME280;56357;52.304;4.870;2023-12-20T05:10:29;101651.75;;;17.92;58.82
69245;BME280;56357;52.304;4.870;2023-12-20T05:12:55;101650.72;;;18.20;57.82
69245;BME280;56357;52.304;4.870;2023-12-20T05:15:21;101664.28;;;18.06;58.66
69245;BME280;56357;52.304;4.870;2023-12-20T05:17:48;101662.06;;;18.08;57.76
69245;BME280;56357;52.304;4.870;2023-12-20T05:20:15;101661.34;;;17.96;57.45
69245;BME280;56357;52.304;4.870;2023-12-20T05:22:42;101661.75;;;18.05;57.24
69245;BME280;56357;52.304;4.870;2023-12-20T05:25:10;101651.25;;;18.17;57.65
69245;BME280;56357;52.304;4.870;2023-12-20T05:27:36;101646.94;;;18.09;57.46
69245;BME280;56357;52.304;4.870;2023-12-20T05:30:03;101645.88;;;18.15;57.86
69245;BME280;56357;52.304;4.870;2023-12-20T05:32:30;101652.22;;;18.06;57.86
69245;BME280;56357;52.304;4.870;2023-12-20T05:34:56;101650.78;;;18.03;57.58
69245;BME280;56357;52.304;4.870;2023-12-20T05:37:23;101647.47;;;18.06;56.40
69245;BME280;56357;52.304;4.870;2023-12-20T05:39:49;101640.63;;;18.19;58.27
69245;BME280;56357;52.304;4.870;2023-12-20T05:42:16;101626.06;;;18.22;57.31
69245;BME280;56357;52.304;4.870;2023-12-20T05:44:42;101627.78;;;18.01;58.82
69245;BME280;56357;52.304;4.870;2023-12-20T05:47:09;101622.81;;;18.08;58.64
69245;BME280;56357;52.304;4.870;2023-12-20T05:49:35;101625.91;;;18.34;58.33
69245;BME280;56357;52.304;4.870;2023-12-20T05:52:02;101633.53;;;18.11;57.43
69245;BME280;56357;52.304;4.870;2023-12-20T05:54:31;101627.97;;;18.16;58.62
69245;BME280;56357;52.304;4.870;2023-12-20T05:56:57;101624.13;;;18.22;57.96
69245;BME280;56357;52.304;4.870;2023-12-20T05:59:24;101627.19;;;18.21;57.58
69245;BME280;56357;52.304;4.870;2023-12-20T06:01:50;101638.44;;;18.26;57.53
69245;BME280;56357;52.304;4.870;2023-12-20T06:04:17;101634.38;;;18.39;57.96
69245;BME280;56357;52.304;4.870;2023-12-20T06:06:43;101630.91;;;18.26;58.00
69245;BME280;56357;52.304;4.870;2023-12-20T06:09:10;101633.94;;;18.25;57.15
69245;BME280;56357;52.304;4.870;2023-12-20T06:11:37;101613.31;;;18.09;58.47
69245;BME280;56357;52.304;4.870;2023-12-20T06:14:07;101630.50;;;18.18;56.87
69245;BME280;56357;52.304;4.870;2023-12-20T06:16:36;101615.00;;;18.10;57.31
69245;BME280;56357;52.304;4.870;2023-12-20T06:19:05;101620.31;;;18.34;57.37
69245;BME280;56357;52.304;4.870;2023-12-20T06:21:32;101622.34;;;18.38;57.99
69245;BME280;56357;52.304;4.870;2023-12-20T06:23:59;101630.47;;;18.40;57.30
69245;BME280;56357;52.304;4.870;2023-12-20T06:26:28;101632.31;;;18.29;57.63
69245;BME280;56357;52.304;4.870;2023-12-20T06:28:54;101624.25;;;18.33;58.13
69245;BME280;56357;52.304;4.870;2023-12-20T06:31:23;101626.06;;;18.44;57.68
69245;BME280;56357;52.304;4.870;2023-12-20T06:33:50;101628.97;;;18.54;56.97
69245;BME280;56357;52.304;4.870;2023-12-20T06:36:23;101615.31;;;18.41;57.53
69245;BME280;56357;52.304;4.870;2023-12-20T06:38:50;101628.00;;;18.43;57.89
69245;BME280;56357;52.304;4.870;2023-12-20T06:41:16;101638.56;;;18.36;58.24
69245;BME280;56357;52.304;4.870;2023-12-20T06:43:43;101625.59;;;18.30;58.62
69245;BME280;56357;52.304;4.870;2023-12-20T06:46:10;101634.13;;;18.40;57.81
69245;BME280;56357;52.304;4.870;2023-12-20T06:48:38;101628.72;;;18.34;59.24
69245;BME280;56357;52.304;4.870;2023-12-20T06:51:05;101626.06;;;18.44;58.25
69245;BME280;56357;52.304;4.870;2023-12-20T06:53:31;101628.00;;;18.43;59.00
69245;BME280;56357;52.304;4.870;2023-12-20T06:55:58;101631.28;;;18.62;58.12
69245;BME280;56357;52.304;4.870;2023-12-20T06:58:24;101622.78;;;18.52;57.94
69245;BME280;56357;52.304;4.870;2023-12-20T07:00:51;101614.16;;;18.37;58.35
69245;BME280;56357;52.304;4.870;2023-12-20T07:03:17;101621.53;;;18.43;57.55
69245;BME280;56357;52.304;4.870;2023-12-20T07:05:43;101613.81;;;18.55;58.71
69245;BME280;56357;52.304;4.870;2023-12-20T07:08:11;101613.25;;;18.53;57.19
69245;BME280;56357;52.304;4.870;2023-12-20T07:10:39;101609.84;;;18.51;59.40
69245;BME280;56357;52.304;4.870;2023-12-20T07:13:05;101612.66;;;18.51;57.59
69245;BME280;56357;52.304;4.870;2023-12-20T07:15:33;101611.84;;;18.28;57.18
69245;BME280;56357;52.304;4.870;2023-12-20T07:17:59;101605.13;;;18.29;57.80
69245;BME280;56357;52.304;4.870;2023-12-20T07:20:26;101604.41;;;18.17;56.70
69245;BME280;56357;52.304;4.870;2023-12-20T07:22:53;101603.34;;;18.45;57.24
69245;BME280;56357;52.304;4.870;2023-12-20T07:25:19;101592.75;;;18.52;57.93
69245;BME280;56357;52.304;4.870;2023-12-20T07:27:46;101600.69;;;18.60;56.33
69245;BME280;56357;52.304;4.870;2023-12-20T07:30:12;101601.06;;;18.69;56.92
69245;BME280;56357;52.304;4.870;2023-12-20T07:32:39;101601.09;;;18.42;57.10
69245;BME280;56357;52.304;4.870;2023-12-20T07:35:06;101598.88;;;18.44;57.30
69245;BME280;56357;52.304;4.870;2023-12-20T07:37:32;101595.69;;;18.67;56.92
69245;BME280;56357;52.304;4.870;2023-12-20T07:39:59;101594.00;;;18.61;57.83
69245;BME280;56357;52.304;4.870;2023-12-20T07:42:25;101604.53;;;18.49;57.60
69245;BME280;56357;52.304;4.870;2023-12-20T07:44:52;101614.25;;;18.68;57.69
69245;BME280;56357;52.304;4.870;2023-12-20T07:47:18;101613.75;;;18.76;57.67
69245;BME280;56357;52.304;4.870;2023-12-20T07:49:48;101606.13;;;18.72;58.14
69245;BME280;56357;52.304;4.870;2023-12-20T07:52:16;101625.44;;;18.63;57.89
69245;BME280;56357;52.304;4.870;2023-12-20T07:54:43;101629.63;;;18.66;58.10
69245;BME280;56357;52.304;4.870;2023-12-20T07:57:10;101635.09;;;18.51;57.45
69245;BME280;56357;52.304;4.870;2023-12-20T07:59:37;101640.88;;;18.66;57.63
69245;BME280;56357;52.304;4.870;2023-12-20T08:02:03;101647.03;;;18.63;60.04
69245;BME280;56357;52.304;4.870;2023-12-20T08:04:30;101642.25;;;18.63;58.85
69245;BME280;56357;52.304;4.870;2023-12-20T08:06:57;101646.59;;;18.76;58.57
69245;BME280;56357;52.304;4.870;2023-12-20T08:09:25;101638.13;;;18.71;59.37
69245;BME280;56357;52.304;4.870;2023-12-20T08:11:51;101629.16;;;18.74;59.79
69245;BME280;56357;52.304;4.870;2023-12-20T08:14:18;101635.66;;;18.79;58.78
69245;BME280;56357;52.304;4.870;2023-12-20T08:16:44;101634.84;;;18.52;58.89
69245;BME280;56357;52.304;4.870;2023-12-20T08:19:12;101633.25;;;18.61;59.62
69245;BME280;56357;52.304;4.870;2023-12-20T08:21:39;101632.91;;;18.58;58.91
69245;BME280;56357;52.304;4.870;2023-12-20T08:24:07;101635.69;;;18.53;58.65
69245;BME280;56357;52.304;4.870;2023-12-20T08:26:33;101624.09;;;18.71;58.44
69245;BME280;56357;52.304;4.870;2023-12-20T08:29:00;101626.19;;;18.54;57.87
69245;BME280;56357;52.304;4.870;2023-12-20T08:31:26;101619.00;;;18.68;60.11
69245;BME280;56357;52.304;4.870;2023-12-20T08:33:54;101634.75;;;18.69;59.17
69245;BME280;56357;52.304;4.870;2023-12-20T08:36:21;101624.47;;;18.53;58.46
69245;BME280;56357;52.304;4.870;2023-12-20T08:38:50;101637.63;;;18.52;59.78
69245;BME280;56357;52.304;4.870;2023-12-20T08:41:18;101643.41;;;18.67;59.24
69245;BME280;56357;52.304;4.870;2023-12-20T08:43:45;101646.16;;;18.41;58.65
69245;BME280;56357;52.304;4.870;2023-12-20T08:46:13;101637.88;;;18.46;59.77
69245;BME280;56357;52.304;4.870;2023-12-20T08:48:39;101644.56;;;18.45;60.11
69245;BME280;56357;52.304;4.870;2023-12-20T08:51:10;101634.38;;;18.39;59.02
69245;BME280;56357;52.304;4.870;2023-12-20T08:53:36;101652.84;;;18.35;58.15
69245;BME280;56357;52.304;4.870;2023-12-20T08:56:03;101641.09;;;18.38;58.43
69245;BME280;56357;52.304;4.870;2023-12-20T08:58:31;101638.56;;;18.36;58.00
69245;BME280;56357;52.304;4.870;2023-12-20T09:00:58;101643.34;;;18.14;58.71
69245;BME280;56357;52.304;4.870;2023-12-20T09:03:24;101629.34;;;18.41;58.37
69245;BME280;56357;52.304;4.870;2023-12-20T09:05:54;101627.97;;;18.16;58.90
69245;BME280;56357;52.304;4.870;2023-12-20T09:08:23;101620.91;;;18.14;58.69
69245;BME280;56357;52.304;4.870;2023-12-20T09:10:49;101617.25;;;18.13;59.13
69245;BME280;56357;52.304;4.870;2023-12-20T09:13:16;101611.19;;;18.21;58.38
69245;BME280;56357;52.304;4.870;2023-12-20T09:15:42;101614.13;;;18.10;59.34
69245;BME280;56357;52.304;4.870;2023-12-20T09:18:10;101624.38;;;18.21;59.01
69245;BME280;56357;52.304;4.870;2023-12-20T09:20:36;101618.25;;;18.02;58.27
69245;BME280;56357;52.304;4.870;2023-12-20T09:23:03;101626.16;;;18.05;58.84
69245;BME280;56357;52.304;4.870;2023-12-20T09:25:29;101626.34;;;18.20;59.70
69245;BME280;56357;52.304;4.870;2023-12-20T09:27:56;101618.69;;;18.16;59.15
69245;BME280;56357;52.304;4.870;2023-12-20T09:30:22;101610.44;;;18.04;58.54
69245;BME280;56357;52.304;4.870;2023-12-20T09:32:49;101619.56;;;17.95;59.18
69245;BME280;56357;52.304;4.870;2023-12-20T09:35:16;101631.75;;;17.84;58.77
69245;BME280;56357;52.304;4.870;2023-12-20T09:37:45;101619.19;;;17.86;58.86
69245;BME280;56357;52.304;4.870;2023-12-20T09:40:18;101621.13;;;18.07;58.89
69245;BME280;56357;52.304;4.870;2023-12-20T09:42:53;101619.56;;;17.95;58.67
69245;BME280;56357;52.304;4.870;2023-12-20T09:45:24;101625.97;;;17.90;57.78
69245;BME280;56357;52.304;4.870;2023-12-20T09:47:52;101622.03;;;17.91;57.69
69245;BME280;56357;52.304;4.870;2023-12-20T09:50:22;101636.50;;;18.05;58.97
69245;BME280;56357;52.304;4.870;2023-12-20T09:52:50;101648.41;;;17.90;58.17
69245;BME280;56357;52.304;4.870;2023-12-20T09:55:18;101649.69;;;18.04;58.18
69245;BME280;56357;52.304;4.870;2023-12-20T09:57:46;101650.78;;;17.82;58.11
69245;BME280;56357;52.304;4.870;2023-12-20T10:00:14;101650.97;;;17.97;57.83
69245;BME280;56357;52.304;4.870;2023-12-20T10:02:50;101643.63;;;17.91;58.75
69245;BME280;56357;52.304;4.870;2023-12-20T10:05:29;101653.47;;;17.93;58.37
69245;BME280;56357;52.304;4.870;2023-12-20T10:07:56;101636.72;;;17.77;58.03
69245;BME280;56357;52.304;4.870;2023-12-20T10:10:26;101625.16;;;17.73;58.05
69245;BME280;56357;52.304;4.870;2023-12-20T10:13:05;101649.44;;;17.84;57.73
69245;BME280;56357;52.304;4.870;2023-12-20T10:15:34;101645.88;;;17.72;57.84
69245;BME280;56357;52.304;4.870;2023-12-20T10:18:01;101636.84;;;17.65;57.98
69245;BME280;56357;52.304;4.870;2023-12-20T10:20:29;101627.50;;;17.81;57.97
69245;BME280;56357;52.304;4.870;2023-12-20T10:22:59;101642.56;;;17.75;57.39
69245;BME280;56357;52.304;4.870;2023-12-20T10:25:26;101636.91;;;17.70;57.73
69245;BME280;56357;52.304;4.870;2023-12-20T10:28:09;101632.22;;;17.97;57.53
69245;BME280;56357;52.304;4.870;2023-12-20T10:30:37;101644.88;;;18.00;57.21
69245;BME280;56357;52.304;4.870;2023-12-20T10:33:05;101637.88;;;18.02;57.60
69245;BME280;56357;52.304;4.870;2023-12-20T10:35:33;101634.28;;;17.85;57.65
69245;BME280;56357;52.304;4.870;2023-12-20T10:38:03;101642.06;;;18.00;57.71
69245;BME280;56357;52.304;4.870;2023-12-20T10:40:34;101631.03;;;18.15;57.23
69245;BME280;56357;52.304;4.870;2023-12-20T10:43:02;101620.84;;;18.31;55.78
69245;BME280;56357;52.304;4.870;2023-12-20T10:45:28;101614.44;;;18.35;56.70
69245;BME280;56357;52.304;4.870;2023-12-20T10:47:56;101622.72;;;18.47;56.82
69245;BME280;56357;52.304;4.870;2023-12-20T10:50:22;101610.97;;;18.50;57.77
69245;BME280;56357;52.304;4.870;2023-12-20T10:52:50;101605.84;;;18.20;56.14
69245;BME280;56357;52.304;4.870;2023-12-20T10:55:21;101597.25;;;18.26;57.73
69245;BME280;56357;52.304;4.870;2023-12-20T10:57:49;101597.25;;;18.26;56.37
69245;BME280;56357;52.304;4.870;2023-12-20T11:00:19;101586.94;;;18.32;57.69
69245;BME280;56357;52.304;4.870;2023-12-20T11:02:49;101589.94;;;18.25;57.60
69245;BME280;56357;52.304;4.870;2023-12-20T11:05:49;101594.00;;;18.40;57.24
69245;BME280;56357;52.304;4.870;2023-12-20T11:08:25;101599.03;;;18.38;57.79
69245;BME280;56357;52.304;4.870;2023-12-20T11:14:06;101603.22;;;18.35;57.74
69245;BME280;56357;52.304;4.870;2023-12-20T11:16:37;101601.31;;;18.41;58.00
69245;BME280;56357;52.304;4.870;2023-12-20T11:19:07;101602.63;;;18.33;57.52
69245;BME280;56357;52.304;4.870;2023-12-20T11:21:34;101596.81;;;18.40;57.60
69245;BME280;56357;52.304;4.870;2023-12-20T11:24:01;101597.25;;;18.26;58.48
69245;BME280;56357;52.304;4.870;2023-12-20T11:26:29;101589.03;;;18.20;57.65
69245;BME280;56357;52.304;4.870;2023-12-20T11:31:59;101587.66;;;17.96;57.23
69245;BME280;56357;52.304;4.870;2023-12-20T11:34:31;101586.00;;;18.00;57.89
69245;BME280;56357;52.304;4.870;2023-12-20T11:37:00;101586.53;;;17.97;58.54
69245;BME280;56357;52.304;4.870;2023-12-20T11:39:28;101573.41;;;18.02;57.22
69245;BME280;56357;52.304;4.870;2023-12-20T11:41:56;101577.34;;;18.01;57.05
69245;BME280;56357;52.304;4.870;2023-12-20T11:44:30;101578.34;;;18.17;57.27
69245;BME280;56357;52.304;4.870;2023-12-20T11:46:57;101581.78;;;18.24;56.37
69245;BME280;56357;52.304;4.870;2023-12-20T11:49:25;101571.19;;;18.04;57.24
69245;BME280;56357;52.304;4.870;2023-12-20T11:51:54;101556.44;;;18.14;56.96
69245;BME280;56357;52.304;4.870;2023-12-20T11:54:21;101562.00;;;18.36;56.63
69245;BME280;56357;52.304;4.870;2023-12-20T11:56:47;101553.44;;;18.20;58.11
69245;BME280;56357;52.304;4.870;2023-12-20T11:59:14;101566.56;;;18.15;57.11
69245;BME280;56357;52.304;4.870;2023-12-20T12:01:48;101566.25;;;18.38;57.38
69245;BME280;56357;52.304;4.870;2023-12-20T12:04:15;101573.34;;;18.19;57.45
69245;BME280;56357;52.304;4.870;2023-12-20T12:06:43;101569.41;;;18.20;58.23
69245;BME280;56357;52.304;4.870;2023-12-20T12:09:11;101574.84;;;18.32;57.78
69245;BME280;56357;52.304;4.870;2023-12-20T12:11:40;101568.03;;;18.22;57.62
69245;BME280;56357;52.304;4.870;2023-12-20T12:14:07;101554.19;;;18.11;57.65
69245;BME280;56357;52.304;4.870;2023-12-20T12:16:34;101554.94;;;18.33;57.31
69245;BME280;56357;52.304;4.870;2023-12-20T12:19:02;101547.41;;;18.34;57.99
69245;BME280;56357;52.304;4.870;2023-12-20T12:21:29;101545.59;;;18.22;57.93
69245;BME280;56357;52.304;4.870;2023-12-20T12:24:09;101521.16;;;18.18;58.83
69245;BME280;56357;52.304;4.870;2023-12-20T12:26:35;101526.91;;;18.33;57.81
69245;BME280;56357;52.304;4.870;2023-12-20T12:29:02;101521.47;;;18.48;57.29
69245;BME280;56357;52.304;4.870;2023-12-20T12:31:28;101524.66;;;18.57;58.81
69245;BME280;56357;52.304;4.870;2023-12-20T12:33:55;101529.75;;;18.65;59.49
69245;BME280;56357;52.304;4.870;2023-12-20T12:36:22;101519.59;;;18.54;57.85
69245;BME280;56357;52.304;4.870;2023-12-20T12:38:51;101514.63;;;18.39;59.07
69245;BME280;56357;52.304;4.870;2023-12-20T12:41:18;101517.25;;;18.46;59.13
69245;BME280;56357;52.304;4.870;2023-12-20T12:43:44;101526.38;;;18.63;58.69
69245;BME280;56357;52.304;4.870;2023-12-20T12:46:10;101515.75;;;18.65;57.19
69245;BME280;56357;52.304;4.870;2023-12-20T12:48:37;101507.88;;;18.35;58.27
69245;BME280;56357;52.304;4.870;2023-12-20T12:51:04;101506.75;;;18.36;57.31
69245;BME280;56357;52.304;4.870;2023-12-20T12:53:32;101506.94;;;18.24;57.21
69245;BME280;56357;52.304;4.870;2023-12-20T12:55:58;101506.97;;;18.56;58.85
69245;BME280;56357;52.304;4.870;2023-12-20T12:58:25;101494.09;;;18.28;58.90